createdAt,value
2019-05-25T00:15:52.793Z,99.90
2019-05-25T00:25:58.443Z,99.90
2019-05-25T00:56:14.147Z,99.90
2019-05-25T02:47:14.865Z,99.90
2019-05-25T08:20:30.141Z,99.90
2019-05-25T08:30:35.677Z,99.90
2019-05-25T08:40:41.236Z,99.90
2019-05-25T08:50:46.841Z,99.90
2019-05-25T09:00:52.410Z,99.90
2019-05-25T09:10:57.979Z,99.90
2019-05-25T09:31:09.560Z,99.90
2019-05-25T09:41:15.061Z,99.90
2019-05-25T09:51:20.735Z,99.90
2019-05-25T10:01:26.316Z,99.40
2019-05-25T10:31:46.480Z,99.90
2019-05-25T10:41:53.937Z,97.90
2019-05-25T11:02:05.856Z,97.30
2019-05-25T11:12:11.496Z,95.80
2019-05-25T11:22:17.962Z,96.20
2019-05-25T11:32:23.511Z,95.50
2019-05-25T11:52:36.546Z,96.20
2019-05-25T12:02:42.163Z,95.80
2019-05-25T12:53:14.585Z,97.30
2019-05-25T13:23:29.980Z,93.40
2019-05-25T14:03:55.734Z,94.30
2019-05-25T14:13:59.851Z,91.90
2019-05-25T14:24:05.525Z,91.80
2019-05-25T14:34:11.126Z,92.30
2019-05-25T14:44:16.588Z,93.20
2019-05-25T14:54:22.097Z,96.50
2019-05-25T15:04:27.616Z,97.30
2019-05-25T15:14:33.086Z,97.20
2019-05-25T15:24:38.584Z,96.60
2019-05-25T15:34:46.458Z,98.40
2019-05-25T15:44:51.206Z,99.90
2019-05-25T15:54:56.705Z,98.30
2019-05-25T16:05:02.220Z,98.70
2019-05-25T16:15:10.492Z,99.40
2019-05-25T16:25:15.966Z,99.80
2019-05-25T16:35:21.496Z,98.30
2019-05-25T16:45:27.119Z,97.40
2019-05-25T16:55:32.696Z,97.70
2019-05-25T17:05:38.421Z,97.40
2019-05-25T17:15:44.015Z,95.40
2019-05-25T17:25:49.536Z,96.30
2019-05-25T17:35:55.107Z,96.40
2019-05-25T17:46:00.613Z,97.30
2019-05-25T17:56:07.502Z,98.90
2019-05-25T18:06:13.116Z,99.70
2019-05-25T18:16:18.701Z,99.90
2019-05-25T18:26:24.336Z,99.90
2019-05-25T18:36:30.868Z,99.90
2019-05-25T18:46:36.424Z,99.90
2019-05-25T18:56:42.018Z,99.90
2019-05-25T19:06:47.619Z,99.90
2019-05-25T21:38:08.798Z,99.90
2019-05-25T21:48:14.411Z,99.90
2019-05-25T21:58:20.077Z,99.90
2019-05-25T22:08:25.699Z,99.90
2019-05-25T22:18:31.261Z,99.90
2019-05-25T22:28:44.765Z,99.90
2019-05-25T22:38:43.936Z,99.90
2019-05-25T22:48:49.616Z,99.90
2019-05-25T22:58:55.309Z,99.90
2019-05-25T23:09:00.898Z,99.90
2019-05-25T23:19:08.004Z,99.90
2019-05-25T23:29:13.597Z,99.90
2019-05-25T23:39:19.303Z,99.90
2019-05-25T23:59:31.652Z,99.90
